Terminal Aerodrome Forecast
Issued by NWS

Home | Current Version | Previous Version | Text Only | Print | Product List | Glossary On
Versions: 1 2 3 4 5 6 7 8 9 10 11 12 13 14 15 16 17 18 19 20 21 22 23 24 25 26 27 28 29 30 31 32 33 34 35 36
000
FTUS41 KOKX 201128
TAFHPN
TAF
KHPN 201128Z 2012/2112 04004KT P6SM OVC025
     FM201500 11004KT P6SM SCT020 BKN200
     FM202000 14005KT 6SM -RA OVC020
     FM202200 15004KT 4SM -RA OVC015
     FM210100 13004KT 2SM -RA BR OVC008
     FM210300 14002KT 1SM -RA BR OVC005
     FM210700 VRB03KT 1SM BR OVC004
      AMD NOT SKED=

USA.gov is the U.S. government's official web portal to all federal, state and local government web resources and services.